sensor_id;sensor_type;location;lat;lon;timestamp;pressure;altitude;pressure_sealevel;temperature;humidity
16580;BME280;8402;51.466;6.806;2023-03-04T00:01:58;102272.72;;;6.59;77.71
16580;BME280;8402;51.466;6.806;2023-03-04T00:04:27;102269.22;;;6.59;77.61
16580;BME280;8402;51.466;6.806;2023-03-04T00:06:57;102260.31;;;6.58;77.58
16580;BME280;8402;51.466;6.806;2023-03-04T00:09:27;102263.75;;;6.54;77.82
16580;BME280;8402;51.466;6.806;2023-03-04T00:11:59;102263.75;;;6.54;77.80
16580;BME280;8402;51.466;6.806;2023-03-04T00:14:29;102270.75;;;6.55;78.08
16580;BME280;8402;51.466;6.806;2023-03-04T00:16:59;102267.81;;;6.56;77.82
16580;BME280;8402;51.466;6.806;2023-03-04T00:19:30;102270.28;;;6.58;78.13
16580;BME280;8402;51.466;6.806;2023-03-04T00:22:01;102271.91;;;6.59;78.32
16580;BME280;8402;51.466;6.806;2023-03-04T00:24:31;102263.22;;;6.57;78.19
16580;BME280;8402;51.466;6.806;2023-03-04T00:27:03;102271.41;;;6.62;78.60
16580;BME280;8402;51.466;6.806;2023-03-04T00:29:33;102259.78;;;6.61;78.17
16580;BME280;8402;51.466;6.806;2023-03-04T00:32:03;102263.88;;;6.64;78.53
16580;BME280;8402;51.466;6.806;2023-03-04T00:34:33;102266.06;;;6.67;78.41
16580;BME280;8402;51.466;6.806;2023-03-04T00:37:03;102265.00;;;6.68;78.05
16580;BME280;8402;51.466;6.806;2023-03-04T00:39:33;102267.16;;;6.66;78.25
16580;BME280;8402;51.466;6.806;2023-03-04T00:42:05;102258.97;;;6.61;78.40
16580;BME280;8402;51.466;6.806;2023-03-04T00:44:35;102263.88;;;6.64;78.16
16580;BME280;8402;51.466;6.806;2023-03-04T00:47:05;102263.03;;;6.63;78.30
16580;BME280;8402;51.466;6.806;2023-03-04T00:49:35;102249.81;;;6.62;78.12
16580;BME280;8402;51.466;6.806;2023-03-04T00:52:06;102257.09;;;6.61;78.13
16580;BME280;8402;51.466;6.806;2023-03-04T00:54:36;102251.97;;;6.60;78.00
16580;BME280;8402;51.466;6.806;2023-03-04T00:57:08;102251.16;;;6.59;78.27
16580;BME280;8402;51.466;6.806;2023-03-04T00:59:38;102249.25;;;6.60;78.43
16580;BME280;8402;51.466;6.806;2023-03-04T01:02:09;102256.28;;;6.61;78.33
16580;BME280;8402;51.466;6.806;2023-03-04T01:04:39;102253.03;;;6.59;78.49
16580;BME280;8402;51.466;6.806;2023-03-04T01:07:10;102250.34;;;6.59;78.18
16580;BME280;8402;51.466;6.806;2023-03-04T01:09:39;102246.22;;;6.56;78.42
16580;BME280;8402;51.466;6.806;2023-03-04T01:12:12;102249.19;;;6.55;78.34
16580;BME280;8402;51.466;6.806;2023-03-04T01:14:42;102246.22;;;6.56;78.32
16580;BME280;8402;51.466;6.806;2023-03-04T01:17:12;102243.31;;;6.58;78.34
16580;BME280;8402;51.466;6.806;2023-03-04T01:19:41;102243.31;;;6.58;78.25
16580;BME280;8402;51.466;6.806;2023-03-04T01:22:11;102242.97;;;6.54;78.48
16580;BME280;8402;51.466;6.806;2023-03-04T01:24:42;102249.69;;;6.52;78.31
16580;BME280;8402;51.466;6.806;2023-03-04T01:27:14;102244.22;;;6.47;78.84
16580;BME280;8402;51.466;6.806;2023-03-04T01:29:44;102235.63;;;6.50;78.73
16580;BME280;8402;51.466;6.806;2023-03-04T01:32:14;102236.78;;;6.54;78.82
16580;BME280;8402;51.466;6.806;2023-03-04T01:34:44;102237.84;;;6.53;79.30
16580;BME280;8402;51.466;6.806;2023-03-04T01:37:14;102232.19;;;6.54;79.17
16580;BME280;8402;51.466;6.806;2023-03-04T01:39:44;102233.53;;;6.52;78.82
16580;BME280;8402;51.466;6.806;2023-03-04T01:42:19;102231.06;;;6.50;78.84
16580;BME280;8402;51.466;6.806;2023-03-04T01:44:50;102230.22;;;6.50;79.14
16580;BME280;8402;51.466;6.806;2023-03-04T01:47:23;102224.84;;;6.50;79.52
16580;BME280;8402;51.466;6.806;2023-03-04T01:49:56;102231.88;;;6.51;79.61
16580;BME280;8402;51.466;6.806;2023-03-04T01:52:27;102227.06;;;6.53;79.27
16580;BME280;8402;51.466;6.806;2023-03-04T01:54:57;102227.59;;;6.55;79.80
16580;BME280;8402;51.466;6.806;2023-03-04T01:57:34;102230.88;;;6.57;79.30
16580;BME280;8402;51.466;6.806;2023-03-04T02:00:26;102224.66;;;6.56;79.06
16580;BME280;8402;51.466;6.806;2023-03-04T02:02:59;102229.31;;;6.61;79.51
16580;BME280;8402;51.466;6.806;2023-03-04T02:05:29;102223.34;;;6.59;79.72
16580;BME280;8402;51.466;6.806;2023-03-04T02:07:59;102219.03;;;6.58;79.59
16580;BME280;8402;51.466;6.806;2023-03-04T02:10:30;102217.38;;;6.57;79.48
16580;BME280;8402;51.466;6.806;2023-03-04T02:13:04;102219.59;;;6.60;79.57
16580;BME280;8402;51.466;6.806;2023-03-04T02:15:34;102216.34;;;6.58;79.27
16580;BME280;8402;51.466;6.806;2023-03-04T02:18:09;102215.19;;;6.54;79.19
16580;BME280;8402;51.466;6.806;2023-03-04T02:20:49;102213.06;;;6.56;78.99
16580;BME280;8402;51.466;6.806;2023-03-04T02:23:25;102206.03;;;6.55;79.07
16580;BME280;8402;51.466;6.806;2023-03-04T02:26:25;102213.00;;;6.51;79.24
16580;BME280;8402;51.466;6.806;2023-03-04T02:28:59;102210.88;;;6.53;79.36
16580;BME280;8402;51.466;6.806;2023-03-04T02:31:32;102204.94;;;6.51;79.20
16580;BME280;8402;51.466;6.806;2023-03-04T02:34:06;102208.66;;;6.50;79.14
16580;BME280;8402;51.466;6.806;2023-03-04T02:36:37;102203.28;;;6.50;79.42
16580;BME280;8402;51.466;6.806;2023-03-04T02:39:12;102200.81;;;6.48;79.35
16580;BME280;8402;51.466;6.806;2023-03-04T02:41:46;102202.72;;;6.48;79.50
16580;BME280;8402;51.466;6.806;2023-03-04T02:44:18;102196.25;;;6.49;79.55
16580;BME280;8402;51.466;6.806;2023-03-04T02:46:49;102203.03;;;6.51;79.59
16580;BME280;8402;51.466;6.806;2023-03-04T02:49:20;102194.94;;;6.51;79.80
16580;BME280;8402;51.466;6.806;2023-03-04T02:51:52;102179.25;;;6.48;79.45
16580;BME280;8402;51.466;6.806;2023-03-04T02:54:27;102191.38;;;6.46;79.45
16580;BME280;8402;51.466;6.806;2023-03-04T02:57:01;102193.75;;;6.42;79.29
16580;BME280;8402;51.466;6.806;2023-03-04T02:59:31;102193.50;;;6.44;79.31
16580;BME280;8402;51.466;6.806;2023-03-04T03:02:01;102187.31;;;6.43;79.31
16580;BME280;8402;51.466;6.806;2023-03-04T03:04:31;102184.09;;;6.46;79.30
16580;BME280;8402;51.466;6.806;2023-03-04T03:07:01;102178.97;;;6.45;80.05
16580;BME280;8402;51.466;6.806;2023-03-04T03:09:31;102176.75;;;6.42;79.47
16580;BME280;8402;51.466;6.806;2023-03-04T03:12:04;102181.06;;;6.43;79.14
16580;BME280;8402;51.466;6.806;2023-03-04T03:14:34;102176.53;;;6.43;78.97
16580;BME280;8402;51.466;6.806;2023-03-04T03:17:03;102177.34;;;6.44;79.12
16580;BME280;8402;51.466;6.806;2023-03-04T03:19:33;102167.03;;;6.41;79.31
16580;BME280;8402;51.466;6.806;2023-03-04T03:22:03;102182.72;;;6.44;79.43
16580;BME280;8402;51.466;6.806;2023-03-04T03:24:33;102167.91;;;6.46;79.40
16580;BME280;8402;51.466;6.806;2023-03-04T03:27:06;102163.06;;;6.48;79.52
16580;BME280;8402;51.466;6.806;2023-03-04T03:29:37;102158.50;;;6.49;79.35
16580;BME280;8402;51.466;6.806;2023-03-04T03:32:07;102163.41;;;6.52;79.28
16580;BME280;8402;51.466;6.806;2023-03-04T03:34:37;102160.75;;;6.57;79.31
16580;BME280;8402;51.466;6.806;2023-03-04T03:37:07;102162.41;;;6.58;79.16
16580;BME280;8402;51.466;6.806;2023-03-04T03:39:37;102158.63;;;6.59;79.07
16580;BME280;8402;51.466;6.806;2023-03-04T03:42:09;102160.25;;;6.60;78.70
16580;BME280;8402;51.466;6.806;2023-03-04T03:44:39;102155.69;;;6.60;78.90
16580;BME280;8402;51.466;6.806;2023-03-04T03:47:09;102167.22;;;6.56;78.79
16580;BME280;8402;51.466;6.806;2023-03-04T03:49:39;102161.25;;;6.54;79.05
16580;BME280;8402;51.466;6.806;2023-03-04T03:52:09;102162.81;;;6.50;78.97
16580;BME280;8402;51.466;6.806;2023-03-04T03:54:39;102164.47;;;6.51;78.82
16580;BME280;8402;51.466;6.806;2023-03-04T03:57:12;102153.91;;;6.49;78.97
16580;BME280;8402;51.466;6.806;2023-03-04T03:59:42;102154.72;;;6.50;79.65
16580;BME280;8402;51.466;6.806;2023-03-04T04:02:11;102160.97;;;6.50;79.77
16580;BME280;8402;51.466;6.806;2023-03-04T04:04:41;102153.69;;;6.51;79.50
16580;BME280;8402;51.466;6.806;2023-03-04T04:07:14;102160.63;;;6.47;79.56
16580;BME280;8402;51.466;6.806;2023-03-04T04:09:44;102160.09;;;6.45;79.64
16580;BME280;8402;51.466;6.806;2023-03-04T04:12:17;102155.25;;;6.47;79.77
16580;BME280;8402;51.466;6.806;2023-03-04T04:14:48;102152.47;;;6.42;79.57
16580;BME280;8402;51.466;6.806;2023-03-04T04:17:17;102147.59;;;6.39;80.30
16580;BME280;8402;51.466;6.806;2023-03-04T04:19:47;102155.13;;;6.37;80.63
16580;BME280;8402;51.466;6.806;2023-03-04T04:22:18;102149.16;;;6.34;80.12
16580;BME280;8402;51.466;6.806;2023-03-04T04:24:49;102146.47;;;6.34;80.30
16580;BME280;8402;51.466;6.806;2023-03-04T04:27:21;102155.13;;;6.37;80.10
16580;BME280;8402;51.466;6.806;2023-03-04T04:29:51;102157.31;;;6.40;80.21
16580;BME280;8402;51.466;6.806;2023-03-04T04:32:21;102153.00;;;6.39;80.13
16580;BME280;8402;51.466;6.806;2023-03-04T04:34:51;102148.16;;;6.41;80.02
16580;BME280;8402;51.466;6.806;2023-03-04T04:37:21;102150.38;;;6.44;80.15
16580;BME280;8402;51.466;6.806;2023-03-04T04:39:50;102152.81;;;6.45;80.37
16580;BME280;8402;51.466;6.806;2023-03-04T04:42:23;102150.38;;;6.44;80.28
16580;BME280;8402;51.466;6.806;2023-03-04T04:44:54;102157.38;;;6.45;80.24
16580;BME280;8402;51.466;6.806;2023-03-04T04:47:24;102153.63;;;6.46;80.55
16580;BME280;8402;51.466;6.806;2023-03-04T04:49:53;102156.56;;;6.44;80.65
16580;BME280;8402;51.466;6.806;2023-03-04T04:52:23;102162.19;;;6.43;80.83
16580;BME280;8402;51.466;6.806;2023-03-04T04:54:53;102161.63;;;6.41;80.74
16580;BME280;8402;51.466;6.806;2023-03-04T04:57:25;102164.91;;;6.43;81.01
16580;BME280;8402;51.466;6.806;2023-03-04T04:59:55;102165.22;;;6.46;80.86
16580;BME280;8402;51.466;6.806;2023-03-04T05:02:25;102164.69;;;6.49;81.21
16580;BME280;8402;51.466;6.806;2023-03-04T05:04:55;102161.78;;;6.51;81.00
16580;BME280;8402;51.466;6.806;2023-03-04T05:07:25;102167.19;;;6.51;81.33
16580;BME280;8402;51.466;6.806;2023-03-04T05:09:55;102169.63;;;6.52;81.26
16580;BME280;8402;51.466;6.806;2023-03-04T05:12:27;102167.41;;;6.49;80.96
16580;BME280;8402;51.466;6.806;2023-03-04T05:14:57;102165.50;;;6.50;80.95
16580;BME280;8402;51.466;6.806;2023-03-04T05:17:27;102163.06;;;6.48;81.48
16580;BME280;8402;51.466;6.806;2023-03-04T05:19:57;102162.53;;;6.46;81.27
16580;BME280;8402;51.466;6.806;2023-03-04T05:22:27;102167.66;;;6.48;80.72
16580;BME280;8402;51.466;6.806;2023-03-04T05:24:56;102163.34;;;6.47;81.07
16580;BME280;8402;51.466;6.806;2023-03-04T05:27:29;102169.81;;;6.46;81.41
16580;BME280;8402;51.466;6.806;2023-03-04T05:29:59;102165.47;;;6.45;81.15
16580;BME280;8402;51.466;6.806;2023-03-04T05:32:31;102165.47;;;6.45;81.03
16580;BME280;8402;51.466;6.806;2023-03-04T05:35:02;102157.88;;;6.42;81.05
16580;BME280;8402;51.466;6.806;2023-03-04T05:37:32;102162.72;;;6.40;80.78
16580;BME280;8402;51.466;6.806;2023-03-04T05:40:03;102161.63;;;6.41;80.96
16580;BME280;8402;51.466;6.806;2023-03-04T05:42:36;102159.50;;;6.43;80.87
16580;BME280;8402;51.466;6.806;2023-03-04T05:45:07;102155.94;;;6.37;80.96
16580;BME280;8402;51.466;6.806;2023-03-04T05:47:37;102166.72;;;6.37;80.98
16580;BME280;8402;51.466;6.806;2023-03-04T05:50:08;102165.09;;;6.36;81.46
16580;BME280;8402;51.466;6.806;2023-03-04T05:52:38;102156.25;;;6.41;81.02
16580;BME280;8402;51.466;6.806;2023-03-04T05:55:08;102160.81;;;6.40;81.38
16580;BME280;8402;51.466;6.806;2023-03-04T05:57:41;102161.63;;;6.41;81.04
16580;BME280;8402;51.466;6.806;2023-03-04T06:00:13;102165.16;;;6.41;81.02
16580;BME280;8402;51.466;6.806;2023-03-04T06:02:44;102164.91;;;6.43;81.21
16580;BME280;8402;51.466;6.806;2023-03-04T06:05:15;102164.91;;;6.43;81.15
16580;BME280;8402;51.466;6.806;2023-03-04T06:07:44;102168.34;;;6.38;80.97
16580;BME280;8402;51.466;6.806;2023-03-04T06:10:16;102165.41;;;6.40;80.99
16580;BME280;8402;51.466;6.806;2023-03-04T06:12:48;102177.81;;;6.41;81.06
16580;BME280;8402;51.466;6.806;2023-03-04T06:15:18;102174.56;;;6.39;80.81
16580;BME280;8402;51.466;6.806;2023-03-04T06:17:48;102169.19;;;6.39;80.72
16580;BME280;8402;51.466;6.806;2023-03-04T06:20:18;102171.63;;;6.40;80.67
16580;BME280;8402;51.466;6.806;2023-03-04T06:22:48;102181.06;;;6.43;81.24
16580;BME280;8402;51.466;6.806;2023-03-04T06:25:18;102183.53;;;6.44;80.87
16580;BME280;8402;51.466;6.806;2023-03-04T06:27:51;102186.47;;;6.43;81.13
16580;BME280;8402;51.466;6.806;2023-03-04T06:30:22;102179.50;;;6.47;81.27
16580;BME280;8402;51.466;6.806;2023-03-04T06:32:52;102190.03;;;6.48;80.97
16580;BME280;8402;51.466;6.806;2023-03-04T06:35:22;102183.84;;;6.48;80.73
16580;BME280;8402;51.466;6.806;2023-03-04T06:37:52;102191.94;;;6.48;81.19
16580;BME280;8402;51.466;6.806;2023-03-04T06:40:21;102187.84;;;6.45;81.02
16580;BME280;8402;51.466;6.806;2023-03-04T06:42:54;102194.38;;;6.49;81.05
16580;BME280;8402;51.466;6.806;2023-03-04T06:45:24;102194.38;;;6.49;81.19
16580;BME280;8402;51.466;6.806;2023-03-04T06:47:54;102194.13;;;6.51;81.14
16580;BME280;8402;51.466;6.806;2023-03-04T06:50:23;102196.59;;;6.52;81.33
16580;BME280;8402;51.466;6.806;2023-03-04T06:52:55;102201.16;;;6.52;81.25
16580;BME280;8402;51.466;6.806;2023-03-04T06:55:25;102203.28;;;6.50;81.09
16580;BME280;8402;51.466;6.806;2023-03-04T06:57:57;102210.31;;;6.51;81.69
16580;BME280;8402;51.466;6.806;2023-03-04T07:00:27;102199.75;;;6.49;81.60
16580;BME280;8402;51.466;6.806;2023-03-04T07:02:59;102197.88;;;6.50;81.73
16580;BME280;8402;51.466;6.806;2023-03-04T07:05:29;102194.94;;;6.51;81.43
16580;BME280;8402;51.466;6.806;2023-03-04T07:07:59;102207.03;;;6.49;82.03
16580;BME280;8402;51.466;6.806;2023-03-04T07:10:29;102203.28;;;6.50;81.73
16580;BME280;8402;51.466;6.806;2023-03-04T07:13:01;102209.19;;;6.47;81.79
16580;BME280;8402;51.466;6.806;2023-03-04T07:15:31;102208.38;;;6.46;82.03
16580;BME280;8402;51.466;6.806;2023-03-04T07:18:02;102212.69;;;6.47;81.94
16580;BME280;8402;51.466;6.806;2023-03-04T07:20:32;102214.00;;;6.45;82.30
16580;BME280;8402;51.466;6.806;2023-03-04T07:23:01;102209.19;;;6.47;83.29
16580;BME280;8402;51.466;6.806;2023-03-04T07:25:31;102213.50;;;6.48;83.36
16580;BME280;8402;51.466;6.806;2023-03-04T07:28:04;102218.88;;;6.48;83.42
16580;BME280;8402;51.466;6.806;2023-03-04T07:30:34;102220.78;;;6.47;84.23
16580;BME280;8402;51.466;6.806;2023-03-04T07:33:03;102214.56;;;6.47;84.64
16580;BME280;8402;51.466;6.806;2023-03-04T07:35:33;102221.59;;;6.48;84.23
16580;BME280;8402;51.466;6.806;2023-03-04T07:38:03;102221.09;;;6.51;84.50
16580;BME280;8402;51.466;6.806;2023-03-04T07:40:33;102220.59;;;6.54;84.45
16580;BME280;8402;51.466;6.806;2023-03-04T07:43:05;102224.34;;;6.53;84.81
16580;BME280;8402;51.466;6.806;2023-03-04T07:45:35;102217.16;;;6.58;84.94
16580;BME280;8402;51.466;6.806;2023-03-04T07:48:05;102213.19;;;6.66;84.88
16580;BME280;8402;51.466;6.806;2023-03-04T07:50:35;102212.19;;;6.72;84.70
16580;BME280;8402;51.466;6.806;2023-03-04T07:53:05;102208.72;;;6.77;85.17
16580;BME280;8402;51.466;6.806;2023-03-04T07:55:35;102213.94;;;6.83;85.44
16580;BME280;8402;51.466;6.806;2023-03-04T07:58:07;102219.94;;;6.90;85.08
16580;BME280;8402;51.466;6.806;2023-03-04T08:00:37;102217.31;;;6.96;84.91
16580;BME280;8402;51.466;6.806;2023-03-04T08:03:07;102215.50;;;7.01;85.75
16580;BME280;8402;51.466;6.806;2023-03-04T08:05:38;102222.00;;;7.05;86.04
16580;BME280;8402;51.466;6.806;2023-03-04T08:08:08;102215.91;;;7.15;87.20
16580;BME280;8402;51.466;6.806;2023-03-04T08:10:38;102220.91;;;7.33;86.25
16580;BME280;8402;51.466;6.806;2023-03-04T08:13:10;102217.88;;;7.57;86.54
16580;BME280;8402;51.466;6.806;2023-03-04T08:15:40;102220.41;;;7.68;85.25
16580;BME280;8402;51.466;6.806;2023-03-04T08:18:11;102218.56;;;7.74;85.13
16580;BME280;8402;51.466;6.806;2023-03-04T08:20:41;102219.13;;;7.76;84.93
16580;BME280;8402;51.466;6.806;2023-03-04T08:23:11;102216.41;;;7.76;84.68
16580;BME280;8402;51.466;6.806;2023-03-04T08:25:41;102221.28;;;7.74;84.89
16580;BME280;8402;51.466;6.806;2023-03-04T08:28:14;102235.00;;;7.67;84.90
16580;BME280;8402;51.466;6.806;2023-03-04T08:30:51;102228.69;;;7.57;85.32
16580;BME280;8402;51.466;6.806;2023-03-04T08:33:23;102223.53;;;7.50;85.74
16580;BME280;8402;51.466;6.806;2023-03-04T08:35:55;102223.81;;;7.54;86.63
16580;BME280;8402;51.466;6.806;2023-03-04T08:38:25;102228.44;;;7.58;86.07
16580;BME280;8402;51.466;6.806;2023-03-04T08:40:55;102226.50;;;7.54;86.00
16580;BME280;8402;51.466;6.806;2023-03-04T08:43:28;102229.75;;;7.56;86.45
16580;BME280;8402;51.466;6.806;2023-03-04T08:45:59;102230.34;;;7.58;86.69
16580;BME280;8402;51.466;6.806;2023-03-04T08:48:29;102226.56;;;7.59;86.57
16580;BME280;8402;51.466;6.806;2023-03-04T08:50:59;102219.00;;;7.61;87.78
16580;BME280;8402;51.466;6.806;2023-03-04T08:53:29;102223.13;;;7.68;87.27
16580;BME280;8402;51.466;6.806;2023-03-04T08:55:58;102219.66;;;7.73;87.80
16580;BME280;8402;51.466;6.806;2023-03-04T08:58:31;102213.16;;;7.74;87.54
16580;BME280;8402;51.466;6.806;2023-03-04T09:01:02;102216.94;;;7.73;87.71
16580;BME280;8402;51.466;6.806;2023-03-04T09:03:33;102219.13;;;7.76;87.70
16580;BME280;8402;51.466;6.806;2023-03-04T09:06:03;102217.00;;;7.83;87.75
16580;BME280;8402;51.466;6.806;2023-03-04T09:08:34;102224.09;;;7.89;87.70
16580;BME280;8402;51.466;6.806;2023-03-04T09:11:04;102214.34;;;7.88;87.77
16580;BME280;8402;51.466;6.806;2023-03-04T09:13:37;102217.09;;;7.93;87.42
16580;BME280;8402;51.466;6.806;2023-03-04T09:16:09;102213.88;;;7.96;87.10
16580;BME280;8402;51.466;6.806;2023-03-04T09:18:40;102215.53;;;8.03;87.10
16580;BME280;8402;51.466;6.806;2023-03-04T09:21:10;102216.06;;;8.05;87.36
16580;BME280;8402;51.466;6.806;2023-03-04T09:23:40;102213.09;;;8.06;86.91
16580;BME280;8402;51.466;6.806;2023-03-04T09:26:15;102218.81;;;8.10;86.71
16580;BME280;8402;51.466;6.806;2023-03-04T09:28:51;102210.50;;;8.21;87.10
16580;BME280;8402;51.466;6.806;2023-03-04T09:31:21;102209.22;;;8.29;86.59
16580;BME280;8402;51.466;6.806;2023-03-04T09:33:52;102206.50;;;8.29;86.12
16580;BME280;8402;51.466;6.806;2023-03-04T09:36:26;102218.63;;;8.26;86.13
16580;BME280;8402;51.466;6.806;2023-03-04T09:38:58;102217.56;;;8.27;86.10
16580;BME280;8402;51.466;6.806;2023-03-04T09:41:35;102206.75;;;8.27;86.26
16580;BME280;8402;51.466;6.806;2023-03-04T09:44:15;102206.75;;;8.27;86.51
16580;BME280;8402;51.466;6.806;2023-03-04T09:46:46;102208.16;;;8.35;86.65
16580;BME280;8402;51.466;6.806;2023-03-04T09:49:18;102210.28;;;8.33;86.58
16580;BME280;8402;51.466;6.806;2023-03-04T09:51:56;102203.06;;;8.39;86.34
16580;BME280;8402;51.466;6.806;2023-03-04T09:54:50;102198.47;;;8.39;86.49
16580;BME280;8402;51.466;6.806;2023-03-04T09:57:29;102200.63;;;8.42;86.45
16580;BME280;8402;51.466;6.806;2023-03-04T10:00:12;102192.78;;;8.41;86.45
16580;BME280;8402;51.466;6.806;2023-03-04T10:03:03;102197.91;;;8.42;85.88
16580;BME280;8402;51.466;6.806;2023-03-04T10:05:37;102194.69;;;8.45;86.17
16580;BME280;8402;51.466;6.806;2023-03-04T10:08:24;102192.84;;;8.51;86.02
16580;BME280;8402;51.466;6.806;2023-03-04T10:10:57;102188.25;;;8.57;85.90
16580;BME280;8402;51.466;6.806;2023-03-04T10:13:34;102192.59;;;8.63;85.59
16580;BME280;8402;51.466;6.806;2023-03-04T10:16:11;102183.41;;;8.64;85.32
16580;BME280;8402;51.466;6.806;2023-03-04T10:18:48;102182.31;;;8.60;85.04
16580;BME280;8402;51.466;6.806;2023-03-04T10:21:22;102177.97;;;8.64;85.51
16580;BME280;8402;51.466;6.806;2023-03-04T10:23:53;102180.44;;;8.65;85.55
16580;BME280;8402;51.466;6.806;2023-03-04T10:26:28;102185.03;;;8.65;85.42
16580;BME280;8402;51.466;6.806;2023-03-04T10:29:01;102180.16;;;8.62;85.76
16580;BME280;8402;51.466;6.806;2023-03-04T10:31:36;102169.31;;;8.62;86.15
16580;BME280;8402;51.466;6.806;2023-03-04T10:34:09;102187.19;;;8.63;87.06
16580;BME280;8402;51.466;6.806;2023-03-04T10:36:53;102179.09;;;8.68;86.79
16580;BME280;8402;51.466;6.806;2023-03-04T10:39:26;102167.22;;;8.79;86.54
16580;BME280;8402;51.466;6.806;2023-03-04T10:42:00;102169.38;;;8.82;86.54
16580;BME280;8402;51.466;6.806;2023-03-04T10:44:31;102177.22;;;8.83;86.14
16580;BME280;8402;51.466;6.806;2023-03-04T10:47:09;102176.97;;;8.80;85.41
16580;BME280;8402;51.466;6.806;2023-03-04T10:49:50;102179.41;;;8.81;85.46
16580;BME280;8402;51.466;6.806;2023-03-04T10:52:27;102172.13;;;8.87;85.74
16580;BME280;8402;51.466;6.806;2023-03-04T10:55:00;102179.16;;;8.93;86.43
16580;BME280;8402;51.466;6.806;2023-03-04T10:57:34;102174.84;;;9.02;86.54
16580;BME280;8402;51.466;6.806;2023-03-04T11:00:23;102175.94;;;9.12;85.85
16580;BME280;8402;51.466;6.806;2023-03-04T11:03:23;102157.81;;;9.22;85.07
16580;BME280;8402;51.466;6.806;2023-03-04T11:06:08;102163.22;;;9.32;84.62
16580;BME280;8402;51.466;6.806;2023-03-04T11:08:40;102155.91;;;9.38;85.03
16580;BME280;8402;51.466;6.806;2023-03-04T11:11:29;102156.72;;;9.28;83.74
16580;BME280;8402;51.466;6.806;2023-03-04T11:14:07;102155.09;;;9.37;84.52
16580;BME280;8402;51.466;6.806;2023-03-04T11:16:51;102151.03;;;9.40;84.45
16580;BME280;8402;51.466;6.806;2023-03-04T11:19:28;102142.91;;;9.35;84.09
16580;BME280;8402;51.466;6.806;2023-03-04T11:21:59;102142.91;;;9.40;84.42
16580;BME280;8402;51.466;6.806;2023-03-04T11:24:33;102141.53;;;9.43;84.34
16580;BME280;8402;51.466;6.806;2023-03-04T11:27:09;102136.41;;;9.46;84.09
16580;BME280;8402;51.466;6.806;2023-03-04T11:29:45;102140.19;;;9.45;84.18
16580;BME280;8402;51.466;6.806;2023-03-04T11:32:19;102135.31;;;9.47;84.22
16580;BME280;8402;51.466;6.806;2023-03-04T11:34:57;102133.97;;;9.45;83.38
16580;BME280;8402;51.466;6.806;2023-03-04T11:37:34;102130.44;;;9.39;83.90
16580;BME280;8402;51.466;6.806;2023-03-04T11:40:10;102123.41;;;9.38;83.77
16580;BME280;8402;51.466;6.806;2023-03-04T11:42:46;102124.22;;;9.33;83.89
16580;BME280;8402;51.466;6.806;2023-03-04T11:45:21;102122.31;;;9.34;83.41
16580;BME280;8402;51.466;6.806;2023-03-04T11:48:03;102122.88;;;9.31;83.16
16580;BME280;8402;51.466;6.806;2023-03-04T11:50:45;102122.88;;;9.31;82.74
16580;BME280;8402;51.466;6.806;2023-03-04T11:53:30;102123.94;;;9.25;83.03
16580;BME280;8402;51.466;6.806;2023-03-04T11:56:15;102115.81;;;9.25;83.79
16580;BME280;8402;51.466;6.806;2023-03-04T11:59:12;102113.41;;;9.23;84.29
16580;BME280;8402;51.466;6.806;2023-03-04T12:01:54;102110.41;;;9.25;84.41
16580;BME280;8402;51.466;6.806;2023-03-04T12:04:42;102113.69;;;9.22;84.68
16580;BME280;8402;51.466;6.806;2023-03-04T12:07:40;102105.28;;;9.23;85.01
16580;BME280;8402;51.466;6.806;2023-03-04T12:10:20;102096.03;;;9.34;84.72
16580;BME280;8402;51.466;6.806;2023-03-04T12:13:05;102097.38;;;9.42;85.13
16580;BME280;8402;51.466;6.806;2023-03-04T12:15:43;102087.63;;;9.46;85.41
16580;BME280;8402;51.466;6.806;2023-03-04T12:18:27;102091.16;;;9.47;85.32
16580;BME280;8402;51.466;6.806;2023-03-04T12:21:09;102084.94;;;9.51;84.77
16580;BME280;8402;51.466;6.806;2023-03-04T12:26:37;102086.03;;;9.50;84.65
16580;BME280;8402;51.466;6.806;2023-03-04T12:29:14;102078.41;;;9.47;85.07
16580;BME280;8402;51.466;6.806;2023-03-04T12:31:53;102075.72;;;9.42;85.59
16580;BME280;8402;51.466;6.806;2023-03-04T12:34:32;102071.66;;;9.40;85.79
16580;BME280;8402;51.466;6.806;2023-03-04T12:43:26;102070.59;;;9.25;88.71
16580;BME280;8402;51.466;6.806;2023-03-04T12:46:10;102068.69;;;9.21;88.46
16580;BME280;8402;51.466;6.806;2023-03-04T12:48:49;102064.94;;;9.22;88.13
16580;BME280;8402;51.466;6.806;2023-03-04T12:51:29;102064.63;;;9.13;88.78
16580;BME280;8402;51.466;6.806;2023-03-04T12:54:18;102063.56;;;9.09;89.77
16580;BME280;8402;51.466;6.806;2023-03-04T12:56:57;102060.59;;;9.10;90.23
16580;BME280;8402;51.466;6.806;2023-03-04T12:59:33;102055.69;;;9.13;90.11
16580;BME280;8402;51.466;6.806;2023-03-04T13:05:21;102053.28;;;9.16;91.25
16580;BME280;8402;51.466;6.806;2023-03-04T13:07:57;102058.66;;;9.21;90.20
16580;BME280;8402;51.466;6.806;2023-03-04T13:10:29;102051.91;;;9.24;90.01
16580;BME280;8402;51.466;6.806;2023-03-04T13:13:02;102047.56;;;9.28;89.86
16580;BME280;8402;51.466;6.806;2023-03-04T13:15:34;102037.81;;;9.32;90.03
16580;BME280;8402;51.466;6.806;2023-03-04T13:21:21;102036.47;;;9.29;89.74
16580;BME280;8402;51.466;6.806;2023-03-04T13:23:52;102043.75;;;9.34;89.79
16580;BME280;8402;51.466;6.806;2023-03-04T13:26:28;102023.47;;;9.31;89.92
16580;BME280;8402;51.466;6.806;2023-03-04T13:29:34;102028.34;;;9.29;91.21
16580;BME280;8402;51.466;6.806;2023-03-04T13:32:09;102023.72;;;9.35;89.98
16580;BME280;8402;51.466;6.806;2023-03-04T13:34:45;102014.50;;;9.41;89.59
16580;BME280;8402;51.466;6.806;2023-03-04T13:37:35;102013.97;;;9.34;89.83
16580;BME280;8402;51.466;6.806;2023-03-04T13:40:28;102009.63;;;9.38;89.04
16580;BME280;8402;51.466;6.806;2023-03-04T13:43:24;102006.13;;;9.37;88.44
16580;BME280;8402;51.466;6.806;2023-03-04T13:49:03;102007.22;;;9.36;88.54
16580;BME280;8402;51.466;6.806;2023-03-04T13:51:36;101998.56;;;9.29;89.05
16580;BME280;8402;51.466;6.806;2023-03-04T13:54:13;101991.25;;;9.30;88.55
16580;BME280;8402;51.466;6.806;2023-03-04T13:56:44;102002.06;;;9.30;88.67
16580;BME280;8402;51.466;6.806;2023-03-04T13:59:28;101990.16;;;9.26;88.80
16580;BME280;8402;51.466;6.806;2023-03-04T14:02:10;101993.44;;;9.23;89.11